sensor_id;sensor_type;location;lat;lon;timestamp;pressure;altitude;pressure_sealevel;temperature;humidity
55604;BME280;41468;48.838;9.330;2024-02-14T00:01:11;98778.31;;;4.43;99.00
55604;BME280;41468;48.838;9.330;2024-02-14T00:03:38;98782.09;;;4.51;97.83
55604;BME280;41468;48.838;9.330;2024-02-14T00:06:05;98772.41;;;4.59;96.05
55604;BME280;41468;48.838;9.330;2024-02-14T00:08:33;98777.38;;;4.65;96.14
55604;BME280;41468;48.838;9.330;2024-02-14T00:10:59;98776.72;;;4.69;95.44
55604;BME280;41468;48.838;9.330;2024-02-14T00:13:27;98772.91;;;4.61;95.60
55604;BME280;41468;48.838;9.330;2024-02-14T00:15:53;98779.72;;;4.50;96.13
55604;BME280;41468;48.838;9.330;2024-02-14T00:18:25;98781.00;;;4.52;95.36
55604;BME280;41468;48.838;9.330;2024-02-14T00:20:52;98778.81;;;4.63;94.77
55604;BME280;41468;48.838;9.330;2024-02-14T00:23:18;98783.28;;;4.76;93.46
55604;BME280;41468;48.838;9.330;2024-02-14T00:25:45;98780.88;;;4.75;92.29
55604;BME280;41468;48.838;9.330;2024-02-14T00:28:12;98774.03;;;4.86;91.17
55604;BME280;41468;48.838;9.330;2024-02-14T00:30:39;98778.19;;;4.92;90.50
55604;BME280;41468;48.838;9.330;2024-02-14T00:33:05;98778.19;;;5.01;89.15
55604;BME280;41468;48.838;9.330;2024-02-14T00:35:33;98778.31;;;5.04;88.57
55604;BME280;41468;48.838;9.330;2024-02-14T00:38:00;98775.78;;;4.91;89.30
55604;BME280;41468;48.838;9.330;2024-02-14T00:40:27;98776.75;;;5.03;89.21
55604;BME280;41468;48.838;9.330;2024-02-14T00:42:54;98773.41;;;4.98;88.87
55604;BME280;41468;48.838;9.330;2024-02-14T00:45:20;98779.59;;;5.07;87.81
55604;BME280;41468;48.838;9.330;2024-02-14T00:47:47;98781.34;;;5.20;87.49
55604;BME280;41468;48.838;9.330;2024-02-14T00:50:14;98770.81;;;5.27;86.37
55604;BME280;41468;48.838;9.330;2024-02-14T00:52:41;98763.50;;;5.28;85.98
55604;BME280;41468;48.838;9.330;2024-02-14T00:55:09;98771.94;;;5.35;85.62
55604;BME280;41468;48.838;9.330;2024-02-14T00:57:36;98770.50;;;5.38;84.95
55604;BME280;41468;48.838;9.330;2024-02-14T01:00:04;98777.66;;;5.34;85.27
55604;BME280;41468;48.838;9.330;2024-02-14T01:02:33;98779.38;;;5.47;84.72
55604;BME280;41468;48.838;9.330;2024-02-14T01:05:00;98776.50;;;5.52;84.63
55604;BME280;41468;48.838;9.330;2024-02-14T01:07:26;98787.00;;;5.62;83.61
55604;BME280;41468;48.838;9.330;2024-02-14T01:09:53;98784.13;;;5.59;83.68
55604;BME280;41468;48.838;9.330;2024-02-14T01:12:20;98793.69;;;5.56;84.25
55604;BME280;41468;48.838;9.330;2024-02-14T01:14:47;98786.34;;;5.65;84.50
55604;BME280;41468;48.838;9.330;2024-02-14T01:17:13;98777.47;;;5.47;86.41
55604;BME280;41468;48.838;9.330;2024-02-14T01:19:52;98785.59;;;5.47;87.70
55604;BME280;41468;48.838;9.330;2024-02-14T01:22:18;98791.19;;;5.51;87.22
55604;BME280;41468;48.838;9.330;2024-02-14T01:24:45;98784.94;;;5.50;87.99
55604;BME280;41468;48.838;9.330;2024-02-14T01:27:12;98794.66;;;5.60;87.91
55604;BME280;41468;48.838;9.330;2024-02-14T01:29:39;98790.53;;;5.54;88.96
55604;BME280;41468;48.838;9.330;2024-02-14T01:32:05;98788.09;;;5.70;87.53
55604;BME280;41468;48.838;9.330;2024-02-14T01:34:33;98780.59;;;5.75;86.92
55604;BME280;41468;48.838;9.330;2024-02-14T01:37:00;98785.72;;;5.68;86.90
55604;BME280;41468;48.838;9.330;2024-02-14T01:39:27;98776.59;;;5.82;87.60
55604;BME280;41468;48.838;9.330;2024-02-14T01:41:53;98775.19;;;5.75;86.60
55604;BME280;41468;48.838;9.330;2024-02-14T01:44:20;98766.44;;;5.70;87.19
55604;BME280;41468;48.838;9.330;2024-02-14T01:46:47;98764.69;;;5.65;87.79
55604;BME280;41468;48.838;9.330;2024-02-14T01:49:15;98766.09;;;5.71;87.58
55604;BME280;41468;48.838;9.330;2024-02-14T01:51:44;98760.91;;;5.49;89.18
55604;BME280;41468;48.838;9.330;2024-02-14T01:54:14;98759.13;;;5.53;89.42
55604;BME280;41468;48.838;9.330;2024-02-14T01:56:49;98758.03;;;5.45;90.00
55604;BME280;41468;48.838;9.330;2024-02-14T01:59:16;98764.44;;;5.41;91.21
55604;BME280;41468;48.838;9.330;2024-02-14T02:01:43;98762.78;;;5.57;90.54
55604;BME280;41468;48.838;9.330;2024-02-14T02:04:15;98766.81;;;5.51;91.02
55604;BME280;41468;48.838;9.330;2024-02-14T02:06:47;98780.81;;;5.53;90.94
55604;BME280;41468;48.838;9.330;2024-02-14T02:09:14;98770.44;;;5.55;90.37
55604;BME280;41468;48.838;9.330;2024-02-14T02:11:51;98768.88;;;5.54;90.18
55604;BME280;41468;48.838;9.330;2024-02-14T02:14:20;98769.00;;;5.58;90.30
55604;BME280;41468;48.838;9.330;2024-02-14T02:16:48;98765.69;;;5.52;89.83
55604;BME280;41468;48.838;9.330;2024-02-14T02:19:15;98768.03;;;5.62;89.60
55604;BME280;41468;48.838;9.330;2024-02-14T02:21:43;98753.53;;;5.58;89.78
55604;BME280;41468;48.838;9.330;2024-02-14T02:24:12;98759.25;;;5.65;90.38
55604;BME280;41468;48.838;9.330;2024-02-14T02:26:39;98754.63;;;5.66;90.08
55604;BME280;41468;48.838;9.330;2024-02-14T02:29:06;98751.75;;;5.71;89.60
55604;BME280;41468;48.838;9.330;2024-02-14T02:31:33;98748.41;;;5.74;89.11
55604;BME280;41468;48.838;9.330;2024-02-14T02:34:00;98751.88;;;5.74;88.91
55604;BME280;41468;48.838;9.330;2024-02-14T02:36:27;98748.56;;;5.69;88.67
55604;BME280;41468;48.838;9.330;2024-02-14T02:38:56;98742.41;;;5.60;89.57
55604;BME280;41468;48.838;9.330;2024-02-14T02:41:24;98741.72;;;5.71;89.07
55604;BME280;41468;48.838;9.330;2024-02-14T02:43:51;98739.59;;;5.77;88.15
55604;BME280;41468;48.838;9.330;2024-02-14T02:46:21;98737.38;;;5.79;88.18
55604;BME280;41468;48.838;9.330;2024-02-14T02:48:49;98741.88;;;5.75;87.50
55604;BME280;41468;48.838;9.330;2024-02-14T02:51:16;98740.25;;;5.74;88.51
55604;BME280;41468;48.838;9.330;2024-02-14T02:53:44;98743.31;;;5.72;88.56
55604;BME280;41468;48.838;9.330;2024-02-14T02:56:11;98742.75;;;5.88;87.62
55604;BME280;41468;48.838;9.330;2024-02-14T02:58:39;98740.84;;;5.88;87.35
55604;BME280;41468;48.838;9.330;2024-02-14T03:01:08;98741.16;;;5.87;87.30
55604;BME280;41468;48.838;9.330;2024-02-14T03:03:36;98738.47;;;5.87;87.76
55604;BME280;41468;48.838;9.330;2024-02-14T03:06:05;98727.28;;;5.97;86.89
55604;BME280;41468;48.838;9.330;2024-02-14T03:08:32;98721.41;;;5.95;86.41
55604;BME280;41468;48.838;9.330;2024-02-14T03:11:07;98720.50;;;6.12;85.90
55604;BME280;41468;48.838;9.330;2024-02-14T03:13:34;98711.88;;;6.18;85.83
55604;BME280;41468;48.838;9.330;2024-02-14T03:16:02;98700.06;;;6.14;86.03
55604;BME280;41468;48.838;9.330;2024-02-14T03:18:31;98699.28;;;6.14;85.61
55604;BME280;41468;48.838;9.330;2024-02-14T03:20:58;98705.03;;;6.12;85.35
55604;BME280;41468;48.838;9.330;2024-02-14T03:23:25;98713.16;;;6.12;85.86
55604;BME280;41468;48.838;9.330;2024-02-14T03:25:56;98719.53;;;6.16;85.00
55604;BME280;41468;48.838;9.330;2024-02-14T03:28:23;98728.56;;;6.20;84.46
55604;BME280;41468;48.838;9.330;2024-02-14T03:30:51;98734.66;;;6.17;85.51
55604;BME280;41468;48.838;9.330;2024-02-14T03:33:19;98729.22;;;6.17;84.69
55604;BME280;41468;48.838;9.330;2024-02-14T03:35:46;98736.09;;;6.24;84.79
55604;BME280;41468;48.838;9.330;2024-02-14T03:38:24;98740.69;;;6.23;84.55
55604;BME280;41468;48.838;9.330;2024-02-14T03:40:51;98744.16;;;6.32;84.03
55604;BME280;41468;48.838;9.330;2024-02-14T03:43:18;98747.78;;;6.36;83.95
55604;BME280;41468;48.838;9.330;2024-02-14T03:45:46;98755.84;;;6.24;84.75
55604;BME280;41468;48.838;9.330;2024-02-14T03:48:12;98762.72;;;6.22;86.25
55604;BME280;41468;48.838;9.330;2024-02-14T03:50:39;98762.13;;;6.16;88.86
55604;BME280;41468;48.838;9.330;2024-02-14T03:53:06;98763.81;;;6.20;86.29
55604;BME280;41468;48.838;9.330;2024-02-14T03:55:34;98764.59;;;6.30;85.21
55604;BME280;41468;48.838;9.330;2024-02-14T03:58:01;98762.06;;;6.25;85.12
55604;BME280;41468;48.838;9.330;2024-02-14T04:00:29;98756.97;;;6.23;85.20
55604;BME280;41468;48.838;9.330;2024-02-14T04:02:56;98761.34;;;6.15;85.56
55604;BME280;41468;48.838;9.330;2024-02-14T04:05:31;98756.53;;;6.12;86.09
55604;BME280;41468;48.838;9.330;2024-02-14T04:07:58;98762.53;;;6.27;85.32
55604;BME280;41468;48.838;9.330;2024-02-14T04:10:25;98760.75;;;6.31;84.05
55604;BME280;41468;48.838;9.330;2024-02-14T04:12:51;98757.53;;;6.37;84.01
55604;BME280;41468;48.838;9.330;2024-02-14T04:15:18;98765.06;;;6.32;84.49
55604;BME280;41468;48.838;9.330;2024-02-14T04:17:45;98765.38;;;6.30;84.43
55604;BME280;41468;48.838;9.330;2024-02-14T04:20:11;98760.13;;;6.25;84.53
55604;BME280;41468;48.838;9.330;2024-02-14T04:22:43;98752.72;;;6.43;83.27
55604;BME280;41468;48.838;9.330;2024-02-14T04:25:10;98754.34;;;6.35;83.88
55604;BME280;41468;48.838;9.330;2024-02-14T04:27:37;98757.06;;;6.35;83.98
55604;BME280;41468;48.838;9.330;2024-02-14T04:30:04;98757.19;;;6.39;84.49
55604;BME280;41468;48.838;9.330;2024-02-14T04:32:32;98763.28;;;6.36;83.99
55604;BME280;41468;48.838;9.330;2024-02-14T04:34:59;98772.34;;;6.40;83.19
55604;BME280;41468;48.838;9.330;2024-02-14T04:37:26;98767.25;;;6.38;83.65
55604;BME280;41468;48.838;9.330;2024-02-14T04:39:53;98773.94;;;6.41;83.44
55604;BME280;41468;48.838;9.330;2024-02-14T04:42:30;98767.53;;;6.46;83.33
55604;BME280;41468;48.838;9.330;2024-02-14T04:44:57;98771.03;;;6.46;83.13
55604;BME280;41468;48.838;9.330;2024-02-14T04:47:29;98770.63;;;6.35;83.83
55604;BME280;41468;48.838;9.330;2024-02-14T04:49:56;98783.56;;;6.30;84.55
55604;BME280;41468;48.838;9.330;2024-02-14T04:52:23;98772.47;;;6.44;84.19
55604;BME280;41468;48.838;9.330;2024-02-14T04:54:50;98773.66;;;6.34;84.40
55604;BME280;41468;48.838;9.330;2024-02-14T04:57:16;98775.09;;;6.31;85.11
55604;BME280;41468;48.838;9.330;2024-02-14T04:59:45;98779.19;;;6.46;83.89
55604;BME280;41468;48.838;9.330;2024-02-14T05:02:12;98776.59;;;6.50;82.20
55604;BME280;41468;48.838;9.330;2024-02-14T05:04:39;98773.03;;;6.58;81.92
55604;BME280;41468;48.838;9.330;2024-02-14T05:07:06;98774.44;;;6.64;81.25
55604;BME280;41468;48.838;9.330;2024-02-14T05:09:34;98777.81;;;6.82;80.29
55604;BME280;41468;48.838;9.330;2024-02-14T05:12:01;98782.50;;;6.73;81.50
55604;BME280;41468;48.838;9.330;2024-02-14T05:14:30;98788.00;;;6.64;83.20
55604;BME280;41468;48.838;9.330;2024-02-14T05:16:58;98783.31;;;6.73;82.15
55604;BME280;41468;48.838;9.330;2024-02-14T05:19:28;98787.59;;;6.74;80.78
55604;BME280;41468;48.838;9.330;2024-02-14T05:21:56;98783.38;;;6.85;80.01
55604;BME280;41468;48.838;9.330;2024-02-14T05:24:23;98783.03;;;6.87;79.74
55604;BME280;41468;48.838;9.330;2024-02-14T05:26:58;98780.91;;;6.93;80.17
55604;BME280;41468;48.838;9.330;2024-02-14T05:29:25;98784.16;;;6.86;79.59
55604;BME280;41468;48.838;9.330;2024-02-14T05:31:52;98785.75;;;6.87;79.54
55604;BME280;41468;48.838;9.330;2024-02-14T05:34:26;98777.13;;;6.85;79.04
55604;BME280;41468;48.838;9.330;2024-02-14T05:36:53;98773.31;;;6.86;78.92
55604;BME280;41468;48.838;9.330;2024-02-14T05:39:25;98786.69;;;6.91;78.62
55604;BME280;41468;48.838;9.330;2024-02-14T05:41:52;98788.94;;;6.89;79.75
55604;BME280;41468;48.838;9.330;2024-02-14T05:44:20;98793.81;;;6.96;78.10
55604;BME280;41468;48.838;9.330;2024-02-14T05:46:49;98792.50;;;7.02;77.49
55604;BME280;41468;48.838;9.330;2024-02-14T05:49:15;98784.03;;;7.03;77.26
55604;BME280;41468;48.838;9.330;2024-02-14T05:51:43;98787.88;;;7.02;77.97
55604;BME280;41468;48.838;9.330;2024-02-14T05:54:09;98785.94;;;7.03;78.30
55604;BME280;41468;48.838;9.330;2024-02-14T05:56:36;98790.13;;;7.00;79.04
55604;BME280;41468;48.838;9.330;2024-02-14T05:59:03;98787.72;;;7.20;76.89
55604;BME280;41468;48.838;9.330;2024-02-14T06:01:30;98777.19;;;7.18;76.84
55604;BME280;41468;48.838;9.330;2024-02-14T06:03:57;98765.34;;;7.23;76.52
55604;BME280;41468;48.838;9.330;2024-02-14T06:06:23;98766.84;;;7.12;77.27
55604;BME280;41468;48.838;9.330;2024-02-14T06:08:50;98775.84;;;7.24;76.11
55604;BME280;41468;48.838;9.330;2024-02-14T06:11:17;98769.16;;;7.22;76.28
55604;BME280;41468;48.838;9.330;2024-02-14T06:13:48;98780.13;;;7.13;77.09
55604;BME280;41468;48.838;9.330;2024-02-14T06:16:14;98779.13;;;7.18;76.87
55604;BME280;41468;48.838;9.330;2024-02-14T06:18:41;98766.25;;;7.27;76.01
55604;BME280;41468;48.838;9.330;2024-02-14T06:21:09;98779.34;;;7.25;75.96
55604;BME280;41468;48.838;9.330;2024-02-14T06:23:36;98777.59;;;7.08;76.20
55604;BME280;41468;48.838;9.330;2024-02-14T06:26:04;98774.38;;;7.15;76.64
55604;BME280;41468;48.838;9.330;2024-02-14T06:28:31;98781.69;;;7.14;75.62
55604;BME280;41468;48.838;9.330;2024-02-14T06:30:58;98782.28;;;7.20;74.88
55604;BME280;41468;48.838;9.330;2024-02-14T06:33:35;98789.53;;;7.16;75.36
55604;BME280;41468;48.838;9.330;2024-02-14T06:36:03;98791.56;;;7.19;74.45
55604;BME280;41468;48.838;9.330;2024-02-14T06:38:33;98795.06;;;7.19;74.81
55604;BME280;41468;48.838;9.330;2024-02-14T06:41:00;98801.09;;;7.25;74.20
55604;BME280;41468;48.838;9.330;2024-02-14T06:43:27;98801.56;;;7.27;73.52
55604;BME280;41468;48.838;9.330;2024-02-14T06:45:55;98806.78;;;7.32;73.10
55604;BME280;41468;48.838;9.330;2024-02-14T06:48:23;98800.69;;;7.35;73.23
55604;BME280;41468;48.838;9.330;2024-02-14T06:50:51;98806.38;;;7.42;73.26
55604;BME280;41468;48.838;9.330;2024-02-14T06:53:18;98804.34;;;7.51;71.96
55604;BME280;41468;48.838;9.330;2024-02-14T06:55:45;98789.78;;;7.56;71.52
55604;BME280;41468;48.838;9.330;2024-02-14T06:58:13;98797.72;;;7.61;70.37
55604;BME280;41468;48.838;9.330;2024-02-14T07:00:40;98795.56;;;7.67;70.53
55604;BME280;41468;48.838;9.330;2024-02-14T07:03:06;98796.47;;;7.71;70.90
55604;BME280;41468;48.838;9.330;2024-02-14T07:05:44;98798.63;;;7.65;71.08
55604;BME280;41468;48.838;9.330;2024-02-14T07:08:11;98793.06;;;7.62;71.60
55604;BME280;41468;48.838;9.330;2024-02-14T07:10:37;98797.41;;;7.75;70.45
55604;BME280;41468;48.838;9.330;2024-02-14T07:13:09;98796.47;;;7.71;70.66
55604;BME280;41468;48.838;9.330;2024-02-14T07:15:35;98798.09;;;7.72;71.21
55604;BME280;41468;48.838;9.330;2024-02-14T07:18:02;98797.84;;;7.65;72.54
55604;BME280;41468;48.838;9.330;2024-02-14T07:20:30;98807.50;;;7.74;71.84
55604;BME280;41468;48.838;9.330;2024-02-14T07:22:57;98807.59;;;7.66;71.90
55604;BME280;41468;48.838;9.330;2024-02-14T07:25:24;98811.09;;;7.66;72.47
55604;BME280;41468;48.838;9.330;2024-02-14T07:27:51;98809.84;;;7.76;72.13
55604;BME280;41468;48.838;9.330;2024-02-14T07:30:17;98811.00;;;7.75;72.76
55604;BME280;41468;48.838;9.330;2024-02-14T07:32:45;98821.66;;;7.80;72.23
55604;BME280;41468;48.838;9.330;2024-02-14T07:35:12;98812.13;;;7.74;74.10
55604;BME280;41468;48.838;9.330;2024-02-14T07:37:43;98816.75;;;7.73;73.90
55604;BME280;41468;48.838;9.330;2024-02-14T07:40:10;98825.72;;;7.74;73.76
55604;BME280;41468;48.838;9.330;2024-02-14T07:42:39;98822.66;;;7.75;72.99
55604;BME280;41468;48.838;9.330;2024-02-14T07:45:06;98826.88;;;7.85;72.90
55604;BME280;41468;48.838;9.330;2024-02-14T07:47:32;98828.03;;;7.96;74.00
55604;BME280;41468;48.838;9.330;2024-02-14T07:50:04;98832.13;;;7.90;75.62
55604;BME280;41468;48.838;9.330;2024-02-14T07:52:31;98822.34;;;7.89;75.37
55604;BME280;41468;48.838;9.330;2024-02-14T07:55:01;98834.38;;;7.88;77.57
55604;BME280;41468;48.838;9.330;2024-02-14T07:57:28;98845.72;;;7.90;77.56
55604;BME280;41468;48.838;9.330;2024-02-14T07:59:55;98838.91;;;7.96;76.59
55604;BME280;41468;48.838;9.330;2024-02-14T08:02:21;98839.72;;;8.09;76.50
55604;BME280;41468;48.838;9.330;2024-02-14T08:04:58;98841.00;;;8.12;75.79
55604;BME280;41468;48.838;9.330;2024-02-14T08:07:25;98841.88;;;8.04;76.55
55604;BME280;41468;48.838;9.330;2024-02-14T08:09:52;98844.25;;;8.05;76.47
55604;BME280;41468;48.838;9.330;2024-02-14T08:12:20;98847.31;;;8.16;75.52
55604;BME280;41468;48.838;9.330;2024-02-14T08:14:47;98848.47;;;8.15;75.41
55604;BME280;41468;48.838;9.330;2024-02-14T08:17:14;98852.66;;;8.12;75.49
55604;BME280;41468;48.838;9.330;2024-02-14T08:19:41;98848.81;;;8.26;74.39
55604;BME280;41468;48.838;9.330;2024-02-14T08:22:07;98853.47;;;8.25;75.00
55604;BME280;41468;48.838;9.330;2024-02-14T08:24:34;98852.22;;;8.35;74.38
55604;BME280;41468;48.838;9.330;2024-02-14T08:27:01;98852.56;;;8.33;74.64
55604;BME280;41468;48.838;9.330;2024-02-14T08:29:28;98850.56;;;8.43;74.13
55604;BME280;41468;48.838;9.330;2024-02-14T08:31:55;98840.13;;;8.45;74.41
55604;BME280;41468;48.838;9.330;2024-02-14T08:34:22;98851.53;;;8.38;74.42
55604;BME280;41468;48.838;9.330;2024-02-14T08:36:50;98852.81;;;8.40;74.58
55604;BME280;41468;48.838;9.330;2024-02-14T08:39:16;98853.47;;;8.37;74.98
55604;BME280;41468;48.838;9.330;2024-02-14T08:41:43;98863.47;;;8.33;76.05
55604;BME280;41468;48.838;9.330;2024-02-14T08:44:15;98857.13;;;8.42;75.92
55604;BME280;41468;48.838;9.330;2024-02-14T08:46:42;98857.31;;;8.36;76.55
55604;BME280;41468;48.838;9.330;2024-02-14T08:49:11;98856.47;;;8.45;76.73
55604;BME280;41468;48.838;9.330;2024-02-14T08:51:38;98856.78;;;8.43;77.38
55604;BME280;41468;48.838;9.330;2024-02-14T08:54:05;98856.78;;;8.43;77.64
55604;BME280;41468;48.838;9.330;2024-02-14T08:56:33;98856.09;;;8.46;77.08
55604;BME280;41468;48.838;9.330;2024-02-14T08:59:01;98858.50;;;8.60;77.11
55604;BME280;41468;48.838;9.330;2024-02-14T09:01:32;98854.53;;;8.57;76.58
55604;BME280;41468;48.838;9.330;2024-02-14T09:03:59;98847.59;;;8.72;76.48
55604;BME280;41468;48.838;9.330;2024-02-14T09:06:37;98857.56;;;8.80;76.04
55604;BME280;41468;48.838;9.330;2024-02-14T09:09:06;98857.00;;;8.87;74.70
55604;BME280;41468;48.838;9.330;2024-02-14T09:11:33;98852.88;;;9.05;74.30
55604;BME280;41468;48.838;9.330;2024-02-14T09:14:00;98861.72;;;9.02;73.23
55604;BME280;41468;48.838;9.330;2024-02-14T09:16:33;98859.53;;;9.20;72.59
55604;BME280;41468;48.838;9.330;2024-02-14T09:19:00;98857.34;;;9.38;72.05
55604;BME280;41468;48.838;9.330;2024-02-14T09:21:32;98849.16;;;9.38;71.09
55604;BME280;41468;48.838;9.330;2024-02-14T09:24:01;98852.28;;;9.52;71.48
55604;BME280;41468;48.838;9.330;2024-02-14T09:26:28;98852.47;;;9.60;70.38
55604;BME280;41468;48.838;9.330;2024-02-14T09:28:55;98859.63;;;9.80;70.48
55604;BME280;41468;48.838;9.330;2024-02-14T09:31:23;98860.16;;;9.70;69.46
55604;BME280;41468;48.838;9.330;2024-02-14T09:33:49;98862.44;;;9.68;69.42
55604;BME280;41468;48.838;9.330;2024-02-14T09:36:16;98860.84;;;9.67;70.83
55604;BME280;41468;48.838;9.330;2024-02-14T09:38:43;98862.63;;;9.75;71.09
55604;BME280;41468;48.838;9.330;2024-02-14T09:41:40;98854.19;;;9.80;70.17
55604;BME280;41468;48.838;9.330;2024-02-14T09:44:07;98847.53;;;9.93;71.88
55604;BME280;41468;48.838;9.330;2024-02-14T09:46:37;98852.53;;;10.07;71.02
55604;BME280;41468;48.838;9.330;2024-02-14T09:49:06;98843.44;;;10.15;70.06
55604;BME280;41468;48.838;9.330;2024-02-14T09:51:33;98851.53;;;10.28;70.79
55604;BME280;41468;48.838;9.330;2024-02-14T09:54:00;98856.81;;;10.36;69.62
55604;BME280;41468;48.838;9.330;2024-02-14T09:56:28;98844.84;;;10.41;69.94
55604;BME280;41468;48.838;9.330;2024-02-14T09:58:55;98846.50;;;10.61;69.28
55604;BME280;41468;48.838;9.330;2024-02-14T10:01:24;98848.00;;;10.75;69.06
55604;BME280;41468;48.838;9.330;2024-02-14T10:03:53;98839.31;;;10.89;67.98
55604;BME280;41468;48.838;9.330;2024-02-14T10:06:21;98849.50;;;11.08;68.61
55604;BME280;41468;48.838;9.330;2024-02-14T10:08:48;98847.94;;;11.26;67.79
55604;BME280;41468;48.838;9.330;2024-02-14T10:11:30;98842.19;;;11.31;65.66
55604;BME280;41468;48.838;9.330;2024-02-14T10:13:59;98844.19;;;11.54;65.63
55604;BME280;41468;48.838;9.330;2024-02-14T10:16:31;98834.28;;;11.68;65.68
55604;BME280;41468;48.838;9.330;2024-02-14T10:18:58;98845.63;;;11.67;65.83
55604;BME280;41468;48.838;9.330;2024-02-14T10:21:26;98844.53;;;11.71;66.05
55604;BME280;41468;48.838;9.330;2024-02-14T10:23:59;98843.53;;;11.80;66.99
55604;BME280;41468;48.838;9.330;2024-02-14T10:26:28;98844.53;;;11.71;66.21
55604;BME280;41468;48.838;9.330;2024-02-14T10:28:56;98848.41;;;11.70;66.80
55604;BME280;41468;48.838;9.330;2024-02-14T10:31:29;98842.31;;;11.77;66.67
55604;BME280;41468;48.838;9.330;2024-02-14T10:33:56;98848.78;;;11.88;68.18
55604;BME280;41468;48.838;9.330;2024-02-14T10:36:34;98831.63;;;11.91;66.69
55604;BME280;41468;48.838;9.330;2024-02-14T10:39:03;98830.16;;;11.98;67.46
55604;BME280;41468;48.838;9.330;2024-02-14T10:41:31;98832.88;;;12.17;67.06
55604;BME280;41468;48.838;9.330;2024-02-14T10:44:02;98824.88;;;12.31;66.83
55604;BME280;41468;48.838;9.330;2024-02-14T10:46:32;98827.53;;;12.51;66.39
55604;BME280;41468;48.838;9.330;2024-02-14T10:49:05;98837.56;;;12.66;66.61
55604;BME280;41468;48.838;9.330;2024-02-14T10:51:35;98833.50;;;12.83;66.19
55604;BME280;41468;48.838;9.330;2024-02-14T10:54:10;98827.53;;;13.04;67.14
55604;BME280;41468;48.838;9.330;2024-02-14T10:56:41;98830.88;;;12.90;65.43
55604;BME280;41468;48.838;9.330;2024-02-14T10:59:15;98833.03;;;12.77;67.78
55604;BME280;41468;48.838;9.330;2024-02-14T11:01:44;98826.13;;;12.87;66.97
55604;BME280;41468;48.838;9.330;2024-02-14T11:04:12;98830.78;;;12.87;66.99
55604;BME280;41468;48.838;9.330;2024-02-14T11:06:53;98824.06;;;12.80;67.96
55604;BME280;41468;48.838;9.330;2024-02-14T11:09:21;98831.53;;;12.83;67.34
55604;BME280;41468;48.838;9.330;2024-02-14T11:11:48;98836.22;;;12.83;68.01
55604;BME280;41468;48.838;9.330;2024-02-14T11:14:16;98834.19;;;12.76;69.38
55604;BME280;41468;48.838;9.330;2024-02-14T11:16:47;98843.13;;;12.73;69.06
55604;BME280;41468;48.838;9.330;2024-02-14T11:19:14;98841.09;;;12.67;69.47
55604;BME280;41468;48.838;9.330;2024-02-14T11:21:46;98838.31;;;12.63;70.96
55604;BME280;41468;48.838;9.330;2024-02-14T11:24:15;98839.88;;;12.64;70.36
55604;BME280;41468;48.838;9.330;2024-02-14T11:26:50;98833.13;;;12.58;70.79
55604;BME280;41468;48.838;9.330;2024-02-14T11:29:21;98831.84;;;12.52;71.67
55604;BME280;41468;48.838;9.330;2024-02-14T11:32:01;98835.75;;;12.51;71.78
55604;BME280;41468;48.838;9.330;2024-02-14T11:34:32;98844.28;;;12.46;72.79
55604;BME280;41468;48.838;9.330;2024-02-14T11:37:04;98834.84;;;12.43;73.70
55604;BME280;41468;48.838;9.330;2024-02-14T11:39:33;98837.22;;;12.45;73.26
55604;BME280;41468;48.838;9.330;2024-02-14T11:42:00;98838.72;;;12.38;74.31
55604;BME280;41468;48.838;9.330;2024-02-14T11:44:27;98833.88;;;12.32;73.95
55604;BME280;41468;48.838;9.330;2024-02-14T11:46:54;98825.66;;;12.32;75.07
55604;BME280;41468;48.838;9.330;2024-02-14T11:49:21;98829.19;;;12.32;75.72
55604;BME280;41468;48.838;9.330;2024-02-14T11:51:48;98826.03;;;12.30;76.12
55604;BME280;41468;48.838;9.330;2024-02-14T11:54:15;98829.09;;;12.25;76.68
55604;BME280;41468;48.838;9.330;2024-02-14T11:56:42;98827.97;;;12.30;76.22
55604;BME280;41468;48.838;9.330;2024-02-14T11:59:09;98828.66;;;12.23;77.82
55604;BME280;41468;48.838;9.330;2024-02-14T12:01:38;98838.84;;;12.23;78.15
55604;BME280;41468;48.838;9.330;2024-02-14T12:04:07;98827.16;;;12.26;77.54
55604;BME280;41468;48.838;9.330;2024-02-14T12:06:36;98834.16;;;12.23;77.81
55604;BME280;41468;48.838;9.330;2024-02-14T12:09:04;98840.75;;;12.22;77.94
55604;BME280;41468;48.838;9.330;2024-02-14T12:11:32;98833.41;;;12.26;78.46
55604;BME280;41468;48.838;9.330;2024-02-14T12:14:01;98838.03;;;12.22;79.15
55604;BME280;41468;48.838;9.330;2024-02-14T12:16:29;98842.22;;;12.16;80.34
55604;BME280;41468;48.838;9.330;2024-02-14T12:19:24;98841.78;;;12.14;81.05
55604;BME280;41468;48.838;9.330;2024-02-14T12:21:54;98850.75;;;12.11;80.78
55604;BME280;41468;48.838;9.330;2024-02-14T12:24:22;98847.69;;;12.16;80.95
55604;BME280;41468;48.838;9.330;2024-02-14T12:26:55;98843.31;;;12.11;81.45
55604;BME280;41468;48.838;9.330;2024-02-14T12:29:23;98851.53;;;12.11;80.74
55604;BME280;41468;48.838;9.330;2024-02-14T12:31:50;98842.19;;;12.12;81.38
55604;BME280;41468;48.838;9.330;2024-02-14T12:34:17;98853.19;;;12.16;81.99
55604;BME280;41468;48.838;9.330;2024-02-14T12:36:51;98842.22;;;12.16;82.65
55604;BME280;41468;48.838;9.330;2024-02-14T12:39:17;98839.88;;;12.14;83.05
55604;BME280;41468;48.838;9.330;2024-02-14T12:41:45;98826.03;;;12.30;83.02
55604;BME280;41468;48.838;9.330;2024-02-14T12:44:12;98826.31;;;12.48;83.04
55604;BME280;41468;48.838;9.330;2024-02-14T12:46:38;98825.75;;;12.62;80.41
55604;BME280;41468;48.838;9.330;2024-02-14T12:49:05;98822.03;;;12.74;79.47
55604;BME280;41468;48.838;9.330;2024-02-14T12:51:33;98817.44;;;12.81;78.70
55604;BME280;41468;48.838;9.330;2024-02-14T12:53:59;98817.09;;;12.87;76.52
55604;BME280;41468;48.838;9.330;2024-02-14T12:56:27;98810.94;;;12.93;74.89
55604;BME280;41468;48.838;9.330;2024-02-14T12:58:54;98811.41;;;12.99;74.35
55604;BME280;41468;48.838;9.330;2024-02-14T13:01:20;98809.09;;;13.01;75.73
55604;BME280;41468;48.838;9.330;2024-02-14T13:03:47;98807.13;;;13.01;75.79
55604;BME280;41468;48.838;9.330;2024-02-14T13:06:19;98796.56;;;13.30;74.68
55604;BME280;41468;48.838;9.330;2024-02-14T13:08:46;98795.94;;;13.44;74.78
55604;BME280;41468;48.838;9.330;2024-02-14T13:11:13;98799.00;;;13.76;72.92
55604;BME280;41468;48.838;9.330;2024-02-14T13:13:53;98799.38;;;13.75;73.41